createdAt,value
2018-02-21T00:01:41.558Z,61.60
2018-02-21T00:04:14.159Z,61.60
2018-02-21T00:06:43.238Z,61.60
2018-02-21T00:09:19.290Z,61.60
2018-02-21T00:11:48.588Z,61.30
2018-02-21T00:14:18.020Z,61.20
2018-02-21T00:16:47.162Z,61.00
2018-02-21T00:19:19.692Z,61.90
2018-02-21T00:21:48.685Z,61.00
2018-02-21T00:24:25.224Z,61.10
2018-02-21T00:26:54.500Z,61.40
2018-02-21T00:29:23.872Z,61.50
2018-02-21T00:31:53.665Z,61.10
2018-02-21T00:34:26.507Z,61.00
2018-02-21T00:36:55.480Z,61.20
2018-02-21T00:39:27.570Z,61.60
2018-02-21T00:41:57.036Z,61.40
2018-02-21T00:44:29.997Z,61.60
2018-02-21T00:46:59.785Z,61.30
2018-02-21T00:49:32.691Z,61.30
2018-02-21T00:52:02.449Z,61.60
2018-02-21T00:54:35.326Z,61.60
2018-02-21T00:57:04.590Z,61.60
2018-02-21T00:59:35.981Z,61.40
2018-02-21T01:02:04.949Z,61.40
2018-02-21T01:04:38.124Z,61.90
2018-02-21T01:07:07.853Z,61.50
2018-02-21T01:12:17.162Z,61.70
2018-02-21T01:14:46.231Z,61.60
2018-02-21T01:17:15.217Z,61.80
2018-02-21T01:19:45.775Z,61.70
2018-02-21T01:22:14.735Z,61.40
2018-02-21T01:24:47.181Z,61.30
2018-02-21T01:27:17.436Z,61.30
2018-02-21T01:29:53.463Z,61.30
2018-02-21T01:32:22.464Z,61.60
2018-02-21T01:34:52.385Z,61.80
2018-02-21T01:37:21.387Z,61.80
2018-02-21T01:39:58.226Z,61.90
2018-02-21T01:42:27.245Z,62.30
2018-02-21T01:44:57.712Z,62.60
2018-02-21T01:47:26.928Z,62.40
2018-02-21T01:50:00.041Z,62.60
2018-02-21T01:52:29.066Z,62.60
2018-02-21T01:55:05.508Z,62.50
2018-02-21T01:57:34.511Z,62.30
2018-02-21T02:00:05.104Z,62.50
2018-02-21T02:02:34.925Z,63.00
2018-02-21T02:05:07.607Z,63.10
2018-02-21T02:07:36.672Z,63.00
2018-02-21T02:10:13.738Z,63.10
2018-02-21T02:12:42.965Z,63.10
2018-02-21T02:15:13.032Z,63.10
2018-02-21T02:17:41.942Z,63.00
2018-02-21T02:20:15.115Z,63.10
2018-02-21T02:22:44.081Z,63.70
2018-02-21T02:25:16.721Z,63.20
2018-02-21T02:27:46.735Z,63.50
2018-02-21T02:30:19.059Z,63.40
2018-02-21T02:32:47.993Z,63.30
2018-02-21T02:35:20.421Z,63.20
2018-02-21T02:37:49.407Z,63.20
2018-02-21T02:40:26.233Z,63.30
2018-02-21T02:42:55.200Z,63.40
2018-02-21T02:45:24.440Z,63.40
2018-02-21T02:47:54.455Z,63.50
2018-02-21T02:50:25.811Z,63.60
2018-02-21T02:52:55.085Z,63.70
2018-02-21T02:55:27.980Z,63.40
2018-02-21T02:57:57.751Z,64.00
2018-02-21T03:00:30.241Z,64.00
2018-02-21T03:03:00.065Z,64.00
2018-02-21T03:05:32.408Z,63.60
2018-02-21T03:08:01.354Z,63.60
2018-02-21T03:10:34.283Z,63.30
2018-02-21T03:13:03.608Z,63.30
2018-02-21T03:15:36.475Z,63.60
2018-02-21T03:18:05.423Z,63.50
2018-02-21T03:20:38.614Z,63.30
2018-02-21T03:23:07.659Z,63.30
2018-02-21T03:25:41.230Z,63.70
2018-02-21T03:28:10.698Z,63.70
2018-02-21T03:30:43.992Z,64.00
2018-02-21T03:33:12.931Z,63.90
2018-02-21T03:35:45.221Z,64.50
2018-02-21T03:38:14.540Z,63.80
2018-02-21T03:40:47.741Z,63.20
2018-02-21T03:43:17.583Z,63.20
2018-02-21T03:45:50.477Z,63.30
2018-02-21T03:48:19.777Z,63.30
2018-02-21T03:50:52.580Z,63.20
2018-02-21T03:53:21.832Z,63.30
2018-02-21T03:55:58.249Z,63.30
2018-02-21T03:58:27.287Z,63.30
2018-02-21T04:00:57.098Z,63.40
2018-02-21T04:03:26.062Z,63.20
2018-02-21T04:06:00.000Z,63.00
2018-02-21T04:08:29.068Z,63.00
2018-02-21T04:11:02.271Z,63.30
2018-02-21T04:13:31.612Z,63.30
2018-02-21T04:16:04.920Z,63.20
2018-02-21T04:18:33.862Z,63.40
2018-02-21T04:21:07.779Z,63.30
2018-02-21T04:23:36.787Z,64.20
2018-02-21T04:26:13.523Z,63.90
2018-02-21T04:28:42.759Z,63.80
2018-02-21T04:31:12.489Z,63.60
2018-02-21T04:33:41.496Z,63.30
2018-02-21T04:36:15.206Z,63.30
2018-02-21T04:38:44.897Z,63.30
2018-02-21T04:41:17.754Z,63.30
2018-02-21T04:43:47.039Z,63.30
2018-02-21T04:46:19.018Z,63.20
2018-02-21T04:48:48.013Z,63.20
2018-02-21T04:51:20.980Z,63.20
2018-02-21T04:53:50.068Z,63.50
2018-02-21T04:56:22.424Z,63.70
2018-02-21T04:58:51.847Z,63.70
2018-02-21T05:01:24.831Z,63.60
2018-02-21T05:03:53.855Z,63.20
2018-02-21T05:06:26.893Z,63.60
2018-02-21T05:08:55.875Z,64.10
2018-02-21T05:11:28.924Z,64.00
2018-02-21T05:13:57.833Z,64.00
2018-02-21T05:16:30.416Z,64.60
2018-02-21T05:18:59.696Z,65.10
2018-02-21T05:21:32.432Z,64.60
2018-02-21T05:24:01.420Z,64.60
2018-02-21T05:26:34.636Z,64.30
2018-02-21T05:29:04.380Z,64.50
2018-02-21T05:31:37.801Z,64.80
2018-02-21T05:34:06.796Z,64.80
2018-02-21T05:36:39.277Z,65.10
2018-02-21T05:39:08.641Z,64.90
2018-02-21T05:41:41.635Z,65.90
2018-02-21T05:44:11.502Z,65.20
2018-02-21T05:46:48.599Z,65.30
2018-02-21T05:49:17.625Z,66.30
2018-02-21T05:51:47.348Z,64.50
2018-02-21T05:54:17.478Z,64.80
2018-02-21T05:56:48.169Z,64.80
2018-02-21T05:59:17.397Z,64.40
2018-02-21T06:01:50.491Z,64.60
2018-02-21T06:04:19.520Z,64.40
2018-02-21T06:06:55.613Z,65.00
2018-02-21T06:09:31.495Z,64.50
2018-02-21T06:12:00.634Z,64.80
2018-02-21T06:14:29.571Z,65.00
2018-02-21T06:16:59.293Z,64.30
2018-02-21T06:19:28.287Z,64.30
2018-02-21T06:22:00.364Z,64.40
2018-02-21T06:24:29.308Z,64.50
2018-02-21T06:27:05.735Z,64.60
2018-02-21T06:29:34.998Z,64.50
2018-02-21T06:32:06.351Z,64.80
2018-02-21T06:34:36.086Z,65.20
2018-02-21T06:37:07.947Z,65.30
2018-02-21T06:39:36.908Z,65.70
2018-02-21T06:42:14.760Z,65.20
2018-02-21T06:44:44.075Z,65.20
2018-02-21T06:47:13.716Z,65.20
2018-02-21T06:49:42.823Z,65.10
2018-02-21T06:52:16.896Z,65.00
2018-02-21T06:54:46.639Z,65.00
2018-02-21T06:57:19.445Z,65.00
2018-02-21T06:59:48.675Z,64.60
2018-02-21T07:02:28.692Z,64.70
2018-02-21T07:04:57.966Z,64.60
2018-02-21T07:07:26.998Z,64.70
2018-02-21T07:09:56.076Z,64.80
2018-02-21T07:12:25.100Z,65.70
2018-02-21T07:14:54.120Z,64.90
2018-02-21T07:17:25.764Z,65.10
2018-02-21T07:19:54.792Z,65.10
2018-02-21T07:22:31.562Z,65.20
2018-02-21T07:25:00.863Z,65.40
2018-02-21T07:27:30.020Z,65.20
2018-02-21T07:29:59.028Z,65.10
2018-02-21T07:32:32.990Z,64.90
2018-02-21T07:35:02.118Z,64.90
2018-02-21T07:37:35.144Z,64.50
2018-02-21T07:40:04.477Z,64.30
2018-02-21T07:42:37.283Z,64.70
2018-02-21T07:45:06.289Z,64.00
2018-02-21T07:47:39.942Z,63.50
2018-02-21T07:50:09.380Z,63.50
2018-02-21T07:52:41.643Z,63.70
2018-02-21T07:55:10.934Z,63.80
2018-02-21T07:57:43.563Z,64.40
2018-02-21T08:00:12.705Z,63.90
2018-02-21T08:02:48.029Z,63.70
2018-02-21T08:05:17.257Z,63.60
2018-02-21T08:07:48.970Z,63.70
2018-02-21T08:10:18.393Z,63.70
2018-02-21T08:12:50.865Z,63.60
2018-02-21T08:15:19.901Z,63.50
2018-02-21T08:17:54.899Z,63.70
2018-02-21T08:20:24.018Z,63.50
2018-02-21T08:22:57.718Z,63.10
2018-02-21T08:25:27.145Z,63.00
2018-02-21T08:27:59.971Z,62.80
2018-02-21T08:30:29.106Z,62.20
2018-02-21T08:33:05.842Z,62.70
2018-02-21T08:35:35.025Z,62.00
2018-02-21T08:38:04.484Z,61.40
2018-02-21T08:40:34.680Z,60.70
2018-02-21T08:43:07.401Z,60.70
2018-02-21T08:45:36.573Z,60.00
2018-02-21T08:48:10.163Z,60.40
2018-02-21T08:50:39.311Z,60.40
2018-02-21T08:53:12.787Z,60.30
2018-02-21T08:55:42.282Z,60.30
2018-02-21T08:58:19.984Z,60.30
2018-02-21T09:00:49.785Z,60.30
2018-02-21T09:03:19.614Z,60.70
2018-02-21T09:05:48.619Z,60.60
2018-02-21T09:08:25.200Z,60.20
2018-02-21T09:10:54.265Z,59.50
2018-02-21T09:13:23.356Z,60.00
2018-02-21T09:15:52.663Z,60.50
2018-02-21T09:18:21.786Z,59.20
2018-02-21T09:20:50.811Z,58.90
2018-02-21T09:23:24.356Z,57.60
2018-02-21T09:25:53.459Z,57.30
2018-02-21T09:28:30.192Z,57.10
2018-02-21T09:31:00.282Z,56.30
2018-02-21T09:33:30.105Z,55.50
2018-02-21T09:35:59.156Z,55.50
2018-02-21T09:38:32.161Z,52.80
2018-02-21T09:41:01.184Z,53.00
2018-02-21T09:43:31.434Z,52.00
2018-02-21T09:46:00.841Z,52.50
2018-02-21T09:48:37.031Z,50.40
2018-02-21T09:51:06.086Z,50.40
2018-02-21T09:53:35.455Z,52.00
2018-02-21T09:56:04.478Z,51.50
2018-02-21T09:58:38.016Z,50.60
2018-02-21T10:01:07.472Z,50.60
2018-02-21T10:03:40.461Z,49.30
2018-02-21T10:06:10.260Z,48.90
2018-02-21T10:08:42.531Z,49.20
2018-02-21T10:11:12.421Z,47.30
2018-02-21T10:13:45.073Z,47.20
2018-02-21T10:16:15.540Z,48.60
2018-02-21T10:18:47.244Z,46.20
2018-02-21T10:21:16.283Z,46.20
2018-02-21T10:23:53.124Z,46.70
2018-02-21T10:26:22.200Z,45.20
2018-02-21T10:28:52.267Z,48.10
2018-02-21T10:31:21.601Z,46.90
2018-02-21T10:33:58.084Z,46.70
2018-02-21T10:36:27.159Z,46.20
2018-02-21T10:38:57.153Z,46.00
2018-02-21T10:41:26.413Z,46.00
2018-02-21T10:43:58.985Z,45.30
2018-02-21T10:46:28.001Z,45.20
2018-02-21T10:49:01.594Z,45.20
2018-02-21T10:51:30.701Z,45.30
2018-02-21T10:54:06.873Z,44.90
2018-02-21T10:56:35.881Z,43.50
2018-02-21T10:59:06.457Z,46.00
2018-02-21T11:01:35.819Z,46.00
2018-02-21T11:04:08.990Z,45.90
2018-02-21T11:09:15.804Z,45.00
2018-02-21T11:11:44.874Z,45.40
2018-02-21T11:14:14.378Z,46.60
2018-02-21T11:16:43.472Z,45.90
2018-02-21T11:19:20.173Z,45.40
2018-02-21T11:21:50.075Z,48.00
2018-02-21T11:24:20.155Z,46.70
2018-02-21T11:26:49.172Z,46.70
2018-02-21T11:29:21.824Z,46.40
2018-02-21T11:31:54.375Z,46.70
2018-02-21T11:34:23.769Z,47.00
2018-02-21T11:36:52.823Z,46.90
2018-02-21T11:39:23.906Z,46.50
2018-02-21T11:41:53.288Z,46.50
2018-02-21T11:44:26.940Z,46.90
2018-02-21T11:46:56.040Z,47.00
2018-02-21T11:49:32.684Z,46.30
2018-02-21T11:52:02.595Z,47.00
2018-02-21T11:54:31.634Z,47.00
2018-02-21T11:57:00.981Z,46.80
2018-02-21T11:59:33.104Z,46.70
2018-02-21T12:02:02.929Z,44.70
2018-02-21T12:04:34.339Z,45.40
2018-02-21T12:07:03.417Z,45.40
2018-02-21T12:09:39.621Z,45.10
2018-02-21T12:12:09.580Z,43.30
2018-02-21T12:14:38.747Z,43.30
2018-02-21T12:17:08.850Z,44.80
2018-02-21T12:19:40.938Z,43.70
2018-02-21T12:22:09.948Z,43.70
2018-02-21T12:24:42.695Z,45.30
2018-02-21T12:27:12.497Z,43.40
2018-02-21T12:29:45.832Z,43.40
2018-02-21T12:32:15.052Z,42.90
2018-02-21T12:34:48.076Z,43.10
2018-02-21T12:37:17.194Z,42.70
2018-02-21T12:39:57.513Z,42.50
2018-02-21T12:42:26.820Z,42.70
2018-02-21T12:44:55.915Z,43.90
2018-02-21T12:47:24.971Z,45.40
2018-02-21T12:49:55.152Z,42.40
2018-02-21T12:52:25.024Z,44.00
2018-02-21T12:54:58.028Z,43.90
2018-02-21T12:57:28.160Z,44.70
2018-02-21T13:00:01.695Z,43.60
2018-02-21T13:02:31.190Z,43.60
2018-02-21T13:05:03.856Z,44.70
2018-02-21T13:07:33.040Z,43.30
2018-02-21T13:10:06.476Z,43.50
2018-02-21T13:12:35.960Z,43.40
2018-02-21T13:15:08.994Z,43.10
2018-02-21T13:17:38.067Z,43.70
2018-02-21T13:20:14.655Z,43.40
2018-02-21T13:22:43.741Z,43.50
2018-02-21T13:25:13.896Z,44.70
2018-02-21T13:27:43.272Z,42.70
2018-02-21T13:30:16.377Z,42.20
2018-02-21T13:32:46.262Z,43.50
2018-02-21T13:35:18.740Z,43.50
2018-02-21T13:37:47.785Z,42.60
2018-02-21T13:40:18.268Z,41.60
2018-02-21T13:42:47.592Z,43.40
2018-02-21T13:45:22.177Z,42.10
2018-02-21T13:47:51.284Z,42.10
2018-02-21T13:50:23.361Z,42.00
2018-02-21T13:52:52.452Z,42.40
2018-02-21T13:55:25.293Z,42.80
2018-02-21T13:57:54.702Z,42.10
2018-02-21T14:00:27.274Z,43.60
2018-02-21T14:02:56.281Z,42.60
2018-02-21T14:05:29.456Z,44.20
2018-02-21T14:07:58.588Z,42.00
2018-02-21T14:10:31.167Z,42.60
2018-02-21T14:13:01.350Z,41.70
2018-02-21T14:15:34.753Z,41.70
2018-02-21T14:18:04.806Z,42.40
2018-02-21T14:20:36.621Z,41.70
2018-02-21T14:23:06.008Z,41.70
2018-02-21T14:25:41.778Z,39.40
2018-02-21T14:28:14.030Z,41.60
2018-02-21T14:30:46.343Z,41.60
2018-02-21T14:33:15.550Z,40.70
2018-02-21T14:35:46.770Z,42.10
2018-02-21T14:38:16.703Z,42.10
2018-02-21T14:40:47.421Z,41.00
2018-02-21T14:43:18.137Z,41.00
2018-02-21T14:45:47.300Z,41.10
2018-02-21T14:48:17.575Z,39.80
2018-02-21T14:50:49.559Z,39.80
2018-02-21T14:53:18.749Z,39.90
2018-02-21T14:55:52.209Z,40.70
2018-02-21T14:58:23.079Z,41.30
2018-02-21T15:00:55.652Z,40.80
2018-02-21T15:03:26.007Z,41.70
2018-02-21T15:05:57.121Z,42.50
2018-02-21T15:08:27.241Z,41.70
2018-02-21T15:11:00.433Z,41.70
2018-02-21T15:13:31.553Z,42.50
2018-02-21T15:16:07.069Z,43.70
2018-02-21T15:18:37.448Z,44.60
2018-02-21T15:21:08.037Z,43.80
2018-02-21T15:23:37.348Z,44.80
2018-02-21T15:26:07.585Z,43.60
2018-02-21T15:28:37.121Z,43.60
2018-02-21T15:31:13.072Z,43.90
2018-02-21T15:33:45.332Z,43.80
2018-02-21T15:36:16.028Z,43.70
2018-02-21T15:38:47.062Z,43.90
2018-02-21T15:41:19.540Z,43.50
2018-02-21T15:43:52.017Z,43.50
2018-02-21T15:46:23.336Z,44.10
2018-02-21T15:48:54.760Z,44.10
2018-02-21T15:51:26.664Z,44.10
2018-02-21T15:53:57.964Z,44.00
2018-02-21T15:56:29.459Z,44.40
2018-02-21T15:59:01.004Z,45.00
2018-02-21T16:01:31.690Z,45.50
2018-02-21T16:04:02.786Z,45.80
2018-02-21T16:06:34.229Z,45.20
2018-02-21T16:09:06.376Z,44.50
2018-02-21T16:11:38.463Z,45.80
2018-02-21T16:14:12.086Z,46.30
2018-02-21T16:16:43.762Z,46.30
2018-02-21T16:19:16.263Z,44.90
2018-02-21T16:21:49.278Z,45.00
2018-02-21T16:24:21.444Z,45.00
2018-02-21T16:26:53.044Z,45.10
2018-02-21T16:29:23.842Z,45.80
2018-02-21T16:31:54.985Z,47.00
2018-02-21T16:34:26.804Z,46.50
2018-02-21T16:37:00.488Z,46.20
2018-02-21T16:39:36.872Z,46.20
2018-02-21T16:42:08.984Z,46.80
2018-02-21T16:44:47.955Z,46.80
2018-02-21T16:47:18.115Z,47.10
2018-02-21T16:49:48.965Z,47.10
2018-02-21T16:52:20.902Z,47.40
2018-02-21T16:54:52.913Z,47.30
2018-02-21T16:57:24.392Z,47.20
2018-02-21T16:59:57.464Z,48.20
2018-02-21T17:02:28.111Z,48.20
2018-02-21T17:04:59.910Z,48.00
2018-02-21T17:07:30.270Z,48.10
2018-02-21T17:10:03.792Z,48.70
2018-02-21T17:15:00.050Z,48.90
2018-02-21T17:17:30.646Z,48.10
2018-02-21T17:20:02.090Z,49.10
2018-02-21T17:22:34.212Z,49.60
2018-02-21T17:25:05.516Z,49.00
2018-02-21T17:27:37.556Z,49.10
2018-02-21T17:30:08.826Z,50.00
2018-02-21T17:32:40.590Z,50.10
2018-02-21T17:35:13.333Z,50.10
2018-02-21T17:37:44.950Z,50.10
2018-02-21T17:40:20.684Z,50.70
2018-02-21T17:42:53.430Z,49.80
2018-02-21T17:45:26.123Z,49.70
2018-02-21T17:47:58.107Z,50.00
2018-02-21T17:50:29.713Z,50.30
2018-02-21T17:53:01.884Z,50.70
2018-02-21T17:55:33.779Z,51.10
2018-02-21T17:58:06.239Z,51.40
2018-02-21T18:00:39.675Z,51.40
2018-02-21T18:03:16.490Z,51.30
2018-02-21T18:05:51.245Z,51.50
2018-02-21T18:08:24.947Z,51.30
2018-02-21T18:10:57.524Z,52.50
2018-02-21T18:13:29.945Z,52.20
2018-02-21T18:16:01.722Z,52.20
2018-02-21T18:18:35.219Z,52.20
2018-02-21T18:21:11.398Z,52.40
2018-02-21T18:23:44.712Z,52.80
2018-02-21T18:26:17.222Z,53.00
2018-02-21T18:28:50.117Z,53.00
2018-02-21T18:31:28.013Z,52.80
2018-02-21T18:34:01.453Z,52.70
2018-02-21T18:39:00.187Z,52.50
2018-02-21T18:41:40.106Z,52.70
2018-02-21T18:44:12.825Z,53.30
2018-02-21T18:46:52.387Z,53.00
2018-02-21T18:49:24.897Z,53.30
2018-02-21T18:51:58.386Z,53.90
2018-02-21T18:54:40.123Z,53.70
2018-02-21T18:57:13.116Z,53.00
2018-02-21T18:59:46.441Z,53.70
2018-02-21T19:02:19.056Z,53.30
2018-02-21T19:04:51.796Z,53.60
2018-02-21T19:07:24.658Z,53.50
2018-02-21T19:09:56.537Z,53.90
2018-02-21T19:12:29.342Z,54.00
2018-02-21T19:15:00.997Z,53.80
2018-02-21T19:17:33.127Z,53.70
2018-02-21T19:20:05.603Z,53.70
2018-02-21T19:22:38.526Z,54.20
2018-02-21T19:27:34.053Z,54.20
2018-02-21T19:30:08.577Z,54.20
2018-02-21T19:32:44.737Z,54.20
2018-02-21T19:35:19.516Z,53.70
2018-02-21T19:37:51.813Z,53.70
2018-02-21T19:40:24.971Z,54.10
2018-02-21T19:43:01.659Z,54.10
2018-02-21T19:45:33.890Z,54.20
2018-02-21T19:48:11.372Z,54.20
2018-02-21T19:50:44.022Z,54.10
2018-02-21T19:53:16.609Z,54.10
2018-02-21T19:55:50.239Z,54.50
2018-02-21T19:58:23.333Z,54.50
2018-02-21T20:00:56.077Z,54.50
2018-02-21T20:03:30.756Z,54.70
2018-02-21T20:06:02.968Z,54.60
2018-02-21T20:08:38.986Z,55.20
2018-02-21T20:11:16.676Z,55.20
2018-02-21T20:14:00.991Z,55.00
2018-02-21T20:16:32.882Z,55.00
2018-02-21T20:19:04.908Z,55.60
2018-02-21T20:21:37.775Z,55.10
2018-02-21T20:24:11.334Z,55.40
2018-02-21T20:26:43.524Z,55.40
2018-02-21T20:31:55.837Z,55.60
2018-02-21T20:34:34.204Z,55.80
2018-02-21T20:37:09.197Z,56.70
2018-02-21T20:39:41.270Z,56.80
2018-02-21T20:42:13.984Z,56.20
2018-02-21T20:44:47.017Z,56.50
2018-02-21T20:47:18.371Z,56.50
2018-02-21T20:49:51.963Z,56.40
2018-02-21T20:52:33.821Z,56.40
2018-02-21T20:55:07.710Z,56.50
2018-02-21T20:57:41.492Z,56.60
2018-02-21T21:00:15.556Z,56.90
2018-02-21T21:02:47.171Z,56.90
2018-02-21T21:05:18.916Z,57.10
2018-02-21T21:07:52.207Z,57.10
2018-02-21T21:10:25.577Z,57.70
2018-02-21T21:12:59.275Z,57.70
2018-02-21T21:15:32.087Z,57.50
2018-02-21T21:18:04.750Z,57.20
2018-02-21T21:23:14.932Z,57.00
2018-02-21T21:25:58.711Z,57.30
2018-02-21T21:28:32.462Z,57.40
2018-02-21T21:31:04.778Z,57.80
2018-02-21T21:33:36.752Z,57.70
2018-02-21T21:36:07.946Z,57.70
2018-02-21T21:38:38.992Z,58.00
2018-02-21T21:41:10.615Z,57.90
2018-02-21T21:43:41.629Z,58.00
2018-02-21T21:46:10.988Z,58.30
2018-02-21T21:48:41.843Z,58.30
2018-02-21T21:51:12.727Z,58.30
2018-02-21T21:53:43.722Z,58.20
2018-02-21T21:56:13.653Z,58.40
2018-02-21T21:58:44.215Z,58.30
2018-02-21T22:01:13.434Z,58.60
2018-02-21T22:03:43.288Z,58.60
2018-02-21T22:06:12.761Z,58.60
2018-02-21T22:08:42.589Z,58.60
2018-02-21T22:11:12.447Z,58.60
2018-02-21T22:13:41.502Z,58.60
2018-02-21T22:16:14.313Z,58.70
2018-02-21T22:18:43.706Z,58.70
2018-02-21T22:21:16.616Z,59.30
2018-02-21T22:23:45.754Z,58.70
2018-02-21T22:26:18.130Z,58.70
2018-02-21T22:28:47.268Z,59.00
2018-02-21T22:31:24.607Z,59.40
2018-02-21T22:33:53.820Z,59.30
2018-02-21T22:36:22.860Z,59.20
2018-02-21T22:38:51.930Z,59.70
2018-02-21T22:41:28.511Z,59.80
2018-02-21T22:43:57.518Z,59.70
2018-02-21T22:46:26.642Z,59.60
2018-02-21T22:48:56.128Z,59.80
2018-02-21T22:51:28.555Z,59.40
2018-02-21T22:53:57.600Z,59.40
2018-02-21T22:56:32.209Z,59.60
2018-02-21T22:59:01.575Z,59.60
2018-02-21T23:01:34.008Z,59.60
2018-02-21T23:04:03.116Z,59.80
2018-02-21T23:06:34.395Z,60.30
2018-02-21T23:09:03.811Z,59.90
2018-02-21T23:11:36.844Z,60.50
2018-02-21T23:14:05.863Z,60.40
2018-02-21T23:16:42.257Z,60.20
2018-02-21T23:19:11.746Z,60.30
2018-02-21T23:21:40.792Z,60.50
2018-02-21T23:24:10.516Z,60.40
2018-02-21T23:26:47.248Z,60.40
2018-02-21T23:29:17.032Z,60.30
2018-02-21T23:32:10.792Z,60.30
2018-02-21T23:34:46.788Z,60.40
2018-02-21T23:37:16.094Z,60.50
2018-02-21T23:39:48.913Z,60.30
2018-02-21T23:42:18.001Z,60.60
2018-02-21T23:44:54.778Z,60.70
2018-02-21T23:47:24.060Z,61.20
2018-02-21T23:49:53.562Z,60.90
2018-02-21T23:52:23.659Z,61.00
2018-02-21T23:54:55.768Z,61.00
2018-02-21T23:57:24.797Z,61.00
2018-02-21T23:59:57.493Z,61.00
